Polis, Cyprus
Current Conditions -  °F | °C
As of 2:00 PM on Monday 20 Oct 2014 (Local Time) from LCPH Reporting Station
Clear Clear  
Wind Chill: 24°   Ceiling: Unl
Heat Index: 24°   Visibility: 6mi
Dew Point: 10°   Wind: 16mph
Humidity: 41%   Direction: 290°WNW
Pressure: 29.88"   Gusts: NA
Location:  35.03°N, 32.41°E
Report Text: LCPH 201100Z 29014KT CAVOK 24/10 Q1012
Loading
Personal Weather Stations






























Interactive Weather Map
Tropical Storm Tracking
New forecast layout! Learn more

10-Day Weather Forecast

Advertisements
Track Severe Weather on mobile